Time;durP1;ratioP1;P1;durP2;ratioP2;P2;SDS_P1;SDS_P2;PMS_P1;PMS_P2;Temp;Humidity;BMP_temperature;BMP_pressure;BME280_temperature;BME280_humidity;BME280_pressure;Samples;Min_cycle;Max_cycle;Signal;HPM_P1;HPM_P2
2021/06/10 00:00:35;;;;;;;35.70;25.98;;;13.20;99.90;;;;;;4973505;28;20050;-90
2021/06/10 00:03:04;;;;;;;31.27;24.70;;;13.20;99.90;;;;;;4955919;28;20089;-91
2021/06/10 00:05:37;;;;;;;31.30;24.88;;;13.10;99.90;;;;;;4947859;28;20466;-93
2021/06/10 00:08:08;;;;;;;33.95;24.88;;;13.00;99.90;;;;;;4940165;28;20357;-90
2021/06/10 00:10:39;;;;;;;31.17;25.50;;;13.00;99.90;;;;;;4972836;28;20420;-91
2021/06/10 00:13:08;;;;;;;32.47;25.50;;;13.00;99.90;;;;;;4970242;28;20448;-92
2021/06/10 00:15:41;;;;;;;31.33;25.17;;;13.00;99.90;;;;;;4946485;28;20130;-91
2021/06/10 00:18:09;;;;;;;30.35;24.52;;;12.90;99.90;;;;;;4972757;28;20055;-91
2021/06/10 00:20:43;;;;;;;34.33;25.25;;;12.90;99.90;;;;;;4972407;28;20093;-91
2021/06/10 00:23:10;;;;;;;34.55;28.15;;;12.90;99.90;;;;;;4939536;28;20150;-92
2021/06/10 00:25:38;;;;;;;36.90;28.30;;;13.00;99.90;;;;;;4973314;28;20062;-92
2021/06/10 00:28:05;;;;;;;36.35;29.13;;;13.00;99.90;;;;;;4972653;28;20110;-93
2021/06/10 00:30:38;;;;;;;34.60;28.20;;;13.00;99.90;;;;;;4972560;28;20042;-92
2021/06/10 00:33:06;;;;;;;38.38;29.05;;;13.00;99.90;;;;;;4972808;28;20387;-92
2021/06/10 00:35:33;;;;;;;37.10;29.27;;;13.00;99.90;;;;;;4972921;28;20051;-93
2021/06/10 00:38:10;;;;;;;;;;;;;;;;;;;;;
2021/06/10 00:40:40;;;;;;;33.38;28.10;;;13.00;99.90;;;;;;4973989;28;20054;-94
2021/06/10 00:43:07;;;;;;;33.72;27.10;;;12.90;99.90;;;;;;4937570;29;20429;-93
2021/06/10 00:45:36;;;;;;;37.47;28.98;;;12.90;99.90;;;;;;4964208;28;20053;-93
2021/06/10 00:48:03;;;;;;;37.60;28.70;;;12.90;99.90;;;;;;4955732;28;20043;-93
2021/06/10 00:50:45;;;;;;;36.22;28.95;;;12.80;99.90;;;;;;4946628;29;20094;-91
2021/06/10 00:53:21;;;;;;;36.25;28.05;;;12.80;99.90;;;;;;4952383;28;20619;-93
2021/06/10 00:55:50;;;;;;;42.25;30.77;;;12.80;99.90;;;;;;4952741;28;20051;-91
2021/06/10 00:58:19;;;;;;;38.22;29.23;;;12.90;99.90;;;;;;4941898;28;20051;-93
2021/06/10 01:01:00;;;;;;;41.25;30.02;;;12.90;99.90;;;;;;4961496;28;20455;-92
2021/06/10 01:03:36;;;;;;;37.92;30.20;;;12.80;99.90;;;;;;4941790;28;20050;-92
2021/06/10 01:06:53;;;;;;;38.80;28.38;;;12.70;99.90;;;;;;4958084;28;20078;-92
2021/06/10 01:09:36;;;;;;;34.20;27.05;;;12.70;99.90;;;;;;4953680;28;20180;-92
2021/06/10 01:12:23;;;;;;;36.55;27.77;;;12.60;99.90;;;;;;4957329;28;20487;-93
2021/06/10 01:15:13;;;;;;;32.75;26.10;;;12.50;99.90;;;;;;4942489;29;20051;-92
2021/06/10 01:17:58;;;;;;;;;;;;;;;;;;;;;
2021/06/10 01:20:36;;;;;;;30.92;25.13;;;12.40;99.90;;;;;;4970804;28;20051;-92
2021/06/10 01:23:25;;;;;;;43.70;24.83;;;12.40;99.90;;;;;;4972618;28;20047;-92
2021/06/10 01:26:29;;;;;;;33.00;25.85;;;12.30;99.90;;;;;;4965985;28;20075;-92
2021/06/10 01:29:17;;;;;;;38.67;25.60;;;12.20;99.90;;;;;;4969892;28;20142;-92
2021/06/10 01:31:54;;;;;;;39.65;28.50;;;12.20;99.90;;;;;;4954776;28;20075;-93
2021/06/10 01:34:23;;;;;;;35.03;26.80;;;12.10;99.90;;;;;;4959550;28;20046;-94
2021/06/10 01:36:54;;;;;;;40.50;29.45;;;12.00;99.90;;;;;;4964712;28;20059;-92
2021/06/10 01:39:52;;;;;;;43.40;29.40;;;12.00;99.90;;;;;;4947911;28;20142;-93
2021/06/10 01:42:19;;;;;;;38.53;28.52;;;12.00;99.90;;;;;;4975817;28;20070;-93
2021/06/10 01:45:16;;;;;;;38.47;29.02;;;12.00;99.90;;;;;;4942873;28;20062;-92
2021/06/10 01:47:51;;;;;;;41.78;28.83;;;12.00;99.90;;;;;;4958659;28;20384;-93
2021/06/10 01:50:23;;;;;;;40.17;29.45;;;12.00;99.90;;;;;;4950116;28;20051;-92
2021/06/10 01:52:54;;;;;;;45.05;30.83;;;12.00;99.90;;;;;;4945096;28;20042;-94
2021/06/10 01:55:34;;;;;;;40.70;29.00;;;12.00;99.90;;;;;;4965803;28;20086;-91
2021/06/10 01:58:07;;;;;;;43.78;30.08;;;12.00;99.90;;;;;;4961017;28;20081;-92
2021/06/10 02:00:36;;;;;;;50.40;33.95;;;12.10;99.90;;;;;;4964866;28;20043;-93
2021/06/10 02:03:04;;;;;;;48.03;33.63;;;12.10;99.90;;;;;;4952483;28;20361;-93
2021/06/10 02:05:32;;;;;;;52.00;35.05;;;12.30;99.90;;;;;;4939374;29;20055;-91
2021/06/10 02:08:00;;;;;;;51.10;35.67;;;12.40;99.90;;;;;;4970964;28;20047;-93
2021/06/10 02:10:33;;;;;;;50.40;34.35;;;12.50;99.90;;;;;;4975044;28;20075;-91
2021/06/10 02:13:06;;;;;;;52.50;35.35;;;12.50;99.90;;;;;;4956248;28;20057;-92
2021/06/10 02:15:34;;;;;;;52.40;35.90;;;12.60;99.90;;;;;;4946697;28;20185;-92
2021/06/10 02:18:03;;;;;;;48.45;33.75;;;12.60;99.90;;;;;;4956984;28;20043;-93
2021/06/10 02:20:35;;;;;;;47.80;33.28;;;12.60;99.90;;;;;;4957652;28;20051;-91
2021/06/10 02:23:02;;;;;;;46.75;33.63;;;12.50;99.90;;;;;;4961270;28;20150;-92
2021/06/10 02:25:29;;;;;;;43.13;32.22;;;12.50;99.90;;;;;;4931903;28;20117;-94
2021/06/10 02:27:56;;;;;;;43.42;31.52;;;12.50;99.90;;;;;;4942484;28;20050;-91
2021/06/10 02:30:24;;;;;;;46.13;32.50;;;12.60;99.90;;;;;;4954339;28;20062;-91
2021/06/10 02:33:01;;;;;;;44.58;32.42;;;12.60;99.90;;;;;;4955192;28;20138;-93
2021/06/10 02:35:33;;;;;;;43.53;32.92;;;12.60;99.90;;;;;;4968974;28;20065;-92
2021/06/10 02:38:05;;;;;;;44.40;31.73;;;12.70;99.90;;;;;;4963370;28;20074;-91
2021/06/10 02:40:42;;;;;;;44.72;31.73;;;12.60;99.90;;;;;;4958309;28;20146;-93
2021/06/10 02:43:10;;;;;;;40.88;30.08;;;12.60;99.90;;;;;;4962687;28;20050;-91
2021/06/10 02:45:39;;;;;;;39.63;30.00;;;12.60;99.90;;;;;;4957460;28;20329;-91
2021/06/10 02:48:10;;;;;;;37.92;30.13;;;12.60;99.90;;;;;;4955021;28;20051;-92
2021/06/10 02:50:49;;;;;;;39.22;29.70;;;12.60;99.90;;;;;;4950762;28;20053;-92
2021/06/10 02:53:33;;;;;;;41.28;29.92;;;12.60;99.90;;;;;;4966199;28;20043;-94
2021/06/10 02:56:09;;;;;;;40.40;29.30;;;12.60;99.90;;;;;;4959400;28;20409;-92
2021/06/10 02:58:40;;;;;;;42.78;31.55;;;12.60;99.90;;;;;;4965487;28;20069;-92
2021/06/10 03:01:08;;;;;;;45.22;32.17;;;12.60;99.90;;;;;;4955279;28;20094;-92
2021/06/10 03:03:42;;;;;;;46.10;31.30;;;12.60;99.90;;;;;;4964039;28;20061;-92
2021/06/10 03:06:20;;;;;;;;;;;;;;;;;;;;;
2021/06/10 03:08:51;;;;;;;42.78;31.90;;;12.70;99.90;;;;;;4977133;28;20145;-92
2021/06/10 03:11:21;;;;;;;46.33;34.20;;;12.60;99.90;;;;;;4957874;28;20062;-91
2021/06/10 03:13:54;;;;;;;45.25;35.03;;;12.60;99.90;;;;;;4962904;28;20054;-93
2021/06/10 03:16:40;;;;;;;54.80;34.63;;;12.70;99.90;;;;;;4895309;29;20117;-91
2021/06/10 03:19:07;;;;;;;46.92;33.45;;;12.70;99.90;;;;;;4881575;29;20374;-92
2021/06/10 03:21:40;;;;;;;51.50;34.92;;;12.70;99.90;;;;;;4895460;29;20088;-90
2021/06/10 03:24:07;;;;;;;48.92;35.03;;;12.70;99.90;;;;;;4865022;29;20122;-92
2021/06/10 03:26:36;;;;;;;53.65;36.10;;;12.70;99.90;;;;;;4894508;29;20127;-94
2021/06/10 03:29:06;;;;;;;53.20;36.40;;;12.70;99.90;;;;;;4895228;29;20044;-91
2021/06/10 03:31:34;;;;;;;54.85;37.28;;;12.70;99.90;;;;;;4879593;29;20049;-91
2021/06/10 03:34:03;;;;;;;52.80;36.50;;;12.60;99.90;;;;;;4895696;29;20062;-91
2021/06/10 03:36:31;;;;;;;53.97;35.83;;;12.60;99.90;;;;;;4895615;29;20060;-91
2021/06/10 03:39:00;;;;;;;49.05;34.70;;;12.60;99.90;;;;;;4895233;29;20097;-92
2021/06/10 03:41:30;;;;;;;52.85;36.40;;;12.70;99.90;;;;;;4894471;29;20160;-91
2021/06/10 03:43:57;;;;;;;52.72;36.03;;;12.70;99.90;;;;;;4877439;29;20168;-93
2021/06/10 03:46:25;;;;;;;47.25;35.15;;;12.70;99.90;;;;;;4881814;29;20088;-93
2021/06/10 03:48:53;;;;;;;45.55;33.55;;;12.70;99.90;;;;;;4950211;28;20047;-91
2021/06/10 03:51:21;;;;;;;45.50;33.40;;;12.70;99.90;;;;;;4977920;28;20051;-93
2021/06/10 03:53:51;;;;;;;43.13;31.58;;;12.70;99.90;;;;;;4964087;28;20048;-91
2021/06/10 03:56:21;;;;;;;40.47;31.33;;;12.70;99.90;;;;;;4971980;28;20125;-91
2021/06/10 03:58:48;;;;;;;40.47;31.50;;;12.60;99.90;;;;;;4967894;28;20050;-91
2021/06/10 04:01:18;;;;;;;36.63;28.83;;;12.60;99.90;;;;;;4973949;28;20233;-93
2021/06/10 04:03:45;;;;;;;37.30;28.95;;;12.60;99.90;;;;;;4956093;28;20047;-92
2021/06/10 04:06:16;;;;;;;35.65;27.88;;;12.60;99.90;;;;;;4943047;28;20063;-92
2021/06/10 04:08:48;;;;;;;32.90;26.52;;;12.60;99.90;;;;;;4968168;28;20055;-92
2021/06/10 04:11:16;;;;;;;31.75;27.45;;;12.70;99.90;;;;;;4960112;28;20051;-91
2021/06/10 04:13:49;;;;;;;32.70;25.52;;;12.70;99.90;;;;;;4962349;28;20074;-93
2021/06/10 04:16:16;;;;;;;32.97;26.55;;;12.70;99.90;;;;;;4968453;28;20046;-92
2021/06/10 04:18:43;;;;;;;33.63;26.02;;;12.70;99.90;;;;;;4947858;29;20062;-90
2021/06/10 04:21:17;;;;;;;33.38;26.83;;;12.80;99.90;;;;;;4976870;28;20053;-92
2021/06/10 04:23:45;;;;;;;30.00;25.42;;;12.80;99.90;;;;;;4969921;28;20467;-93
2021/06/10 04:26:16;;;;;;;28.42;24.73;;;12.90;99.90;;;;;;4952787;28;20050;-91
2021/06/10 04:28:57;;;;;;;;;;;;;;;;;;;;;
2021/06/10 04:31:45;;;;;;;28.00;22.35;;;13.00;99.90;;;;;;4955236;28;20089;-92
2021/06/10 04:35:08;;;;;;;27.50;23.80;;;13.00;99.90;;;;;;4940236;28;20472;-92
2021/06/10 04:37:38;;;;;;;24.98;22.33;;;13.00;99.90;;;;;;4957437;28;20070;-92
2021/06/10 04:40:42;;;;;;;24.05;21.10;;;13.10;99.90;;;;;;4960951;28;20054;-93
2021/06/10 04:43:22;;;;;;;25.00;20.73;;;13.00;99.90;;;;;;4964530;28;20110;-92
2021/06/10 04:46:18;;;;;;;23.02;19.98;;;13.00;99.90;;;;;;4898555;29;20131;-93
2021/06/10 04:49:01;;;;;;;;;;;;;;;;;;;;;
2021/06/10 04:51:36;;;;;;;20.42;18.35;;;13.10;99.90;;;;;;4901917;29;21297;-93
2021/06/10 04:54:11;;;;;;;20.67;18.48;;;13.20;99.90;;;;;;4912561;29;20104;-92
2021/06/10 04:56:41;;;;;;;20.13;18.03;;;13.20;99.90;;;;;;4886091;29;20148;-93
2021/06/10 04:59:17;;;;;;;19.58;17.55;;;13.30;99.90;;;;;;4914268;29;20284;-92
2021/06/10 05:01:44;;;;;;;20.02;17.90;;;13.40;99.90;;;;;;4885476;29;20103;-93
2021/06/10 05:04:14;;;;;;;18.55;16.35;;;13.60;99.90;;;;;;4948499;28;20150;-93
2021/06/10 05:06:46;;;;;;;16.67;14.95;;;13.60;99.90;;;;;;4938567;29;20147;-93
2021/06/10 05:09:23;;;;;;;15.85;14.07;;;13.60;99.90;;;;;;4954308;28;20447;-92
2021/06/10 05:11:50;;;;;;;14.55;13.07;;;13.70;99.90;;;;;;4948198;28;20377;-94
2021/06/10 05:14:32;;;;;;;14.65;13.23;;;13.90;99.90;;;;;;4964061;28;20051;-92
2021/06/10 05:16:59;;;;;;;;;;;13.90;99.90;;;;;;4965007;28;20146;-94
2021/06/10 05:19:30;;;;;;;13.25;11.85;;;14.00;99.90;;;;;;4947225;29;19990;-93
2021/06/10 05:21:57;;;;;;;12.63;11.43;;;14.10;99.90;;;;;;4969929;28;20062;-93
2021/06/10 05:24:27;;;;;;;13.32;11.98;;;14.20;99.90;;;;;;4976824;28;20409;-94
2021/06/10 05:26:55;;;;;;;12.57;11.27;;;14.30;99.90;;;;;;4972581;28;20086;-93
2021/06/10 05:29:23;;;;;;;16.15;11.50;;;14.50;99.90;;;;;;4966856;28;20435;-92
2021/06/10 05:31:56;;;;;;;12.63;11.20;;;14.60;99.90;;;;;;4986227;28;20066;-92
2021/06/10 05:34:34;;;;;;;11.00;9.90;;;14.70;99.90;;;;;;4988786;28;20070;-93
2021/06/10 05:37:01;;;;;;;10.20;9.30;;;15.00;99.90;;;;;;4940424;29;20051;-91
2021/06/10 05:39:30;;;;;;;10.60;8.73;;;15.10;99.90;;;;;;4945327;28;20388;-93
2021/06/10 05:42:18;;;;;;;;;;;;;;;;;;;;;
2021/06/10 05:44:53;;;;;;;8.90;8.00;;;15.50;99.90;;;;;;4964303;28;20089;-91
2021/06/10 05:47:20;;;;;;;8.95;7.85;;;15.60;99.90;;;;;;4962222;28;20047;-91
2021/06/10 05:49:48;;;;;;;8.93;8.10;;;15.70;99.90;;;;;;4956395;28;20443;-91
2021/06/10 05:52:18;;;;;;;9.48;8.40;;;15.90;99.90;;;;;;4923690;29;20082;-91
2021/06/10 05:54:46;;;;;;;9.65;8.65;;;16.00;99.90;;;;;;4961886;28;20115;-92
2021/06/10 05:57:13;;;;;;;9.82;8.30;;;16.10;99.90;;;;;;4958974;28;20490;-91
2021/06/10 05:59:40;;;;;;;12.60;8.15;;;16.10;99.90;;;;;;4965547;28;20055;-94
2021/06/10 06:02:07;;;;;;;9.00;8.10;;;16.30;99.90;;;;;;4978511;28;20145;-92
2021/06/10 06:04:34;;;;;;;8.57;7.72;;;16.40;99.90;;;;;;4981843;28;20086;-91
2021/06/10 06:07:08;;;;;;;7.78;7.07;;;16.60;99.90;;;;;;4954635;29;20518;-92
2021/06/10 06:09:38;;;;;;;7.70;7.07;;;16.70;99.90;;;;;;4953833;28;20133;-94
2021/06/10 06:12:11;;;;;;;9.05;7.47;;;16.70;99.90;;;;;;4958773;28;20051;-91
2021/06/10 06:14:45;;;;;;;;;;;17.00;99.90;;;;;;4963088;28;20468;-93
2021/06/10 06:17:17;;;;;;;7.53;6.82;;;17.20;99.90;;;;;;4947539;28;19922;-92
2021/06/10 06:19:57;;;;;;;7.53;6.82;;;17.40;99.90;;;;;;4962815;28;20150;-95
2021/06/10 06:22:28;;;;;;;7.40;6.35;;;17.60;99.90;;;;;;4959101;28;20093;-91
2021/06/10 06:24:59;;;;;;;8.98;6.28;;;17.80;99.90;;;;;;4957741;28;20050;-92
2021/06/10 06:27:26;;;;;;;7.22;6.53;;;17.90;99.90;;;;;;4956123;28;20058;-94
2021/06/10 06:29:54;;;;;;;7.40;6.70;;;18.00;99.90;;;;;;4951703;28;20741;-94
2021/06/10 06:32:21;;;;;;;7.20;6.40;;;18.20;99.90;;;;;;4971663;28;20062;-93
2021/06/10 06:34:48;;;;;;;9.85;6.43;;;18.50;99.90;;;;;;4964150;28;20062;-91
2021/06/10 06:37:16;;;;;;;8.98;5.70;;;18.80;99.90;;;;;;4960398;28;20051;-93
2021/06/10 06:39:43;;;;;;;6.38;5.78;;;19.10;99.90;;;;;;4955194;28;20433;-92
2021/06/10 06:42:10;;;;;;;6.82;6.20;;;19.00;99.90;;;;;;4939182;29;20110;-90
2021/06/10 06:44:40;;;;;;;7.75;7.00;;;19.10;99.90;;;;;;4960488;28;20104;-94
2021/06/10 06:47:09;;;;;;;6.50;5.97;;;19.10;99.90;;;;;;4958457;28;20054;-91
2021/06/10 06:49:36;;;;;;;7.50;6.70;;;19.40;99.90;;;;;;4956683;28;20046;-91
2021/06/10 06:52:03;;;;;;;7.97;5.85;;;19.70;99.90;;;;;;4974103;28;20391;-90
2021/06/10 06:54:33;;;;;;;8.75;5.93;;;19.80;99.90;;;;;;4957688;28;20127;-90
2021/06/10 06:57:04;;;;;;;9.02;6.28;;;20.10;99.90;;;;;;4957766;28;20139;-91
2021/06/10 06:59:31;;;;;;;6.45;5.85;;;20.20;99.90;;;;;;4961519;28;20047;-92
2021/06/10 07:02:02;;;;;;;9.68;6.10;;;20.40;99.90;;;;;;4942769;28;20411;-92
2021/06/10 07:04:30;;;;;;;6.20;5.60;;;20.60;99.90;;;;;;4957458;28;20053;-92
2021/06/10 07:07:01;;;;;;;6.10;5.60;;;20.80;99.90;;;;;;4953954;29;20078;-91
2021/06/10 07:09:34;;;;;;;6.43;5.63;;;21.00;99.90;;;;;;4968686;28;20193;-90
2021/06/10 07:12:01;;;;;;;6.43;5.93;;;21.30;99.90;;;;;;4922508;29;20457;-91
2021/06/10 07:14:28;;;;;;;6.68;4.60;;;21.30;99.90;;;;;;4968272;28;20401;-91
2021/06/10 07:16:56;;;;;;;6.88;5.90;;;21.70;99.90;;;;;;4957001;28;20047;-91
2021/06/10 07:19:23;;;;;;;6.25;5.65;;;22.10;99.90;;;;;;4975153;28;20119;-92
2021/06/10 07:21:51;;;;;;;6.25;5.68;;;22.20;99.90;;;;;;4953369;29;20059;-92
2021/06/10 07:24:46;;;;;;;5.80;5.28;;;22.30;99.90;;;;;;4955727;28;20098;-92
2021/06/10 07:27:15;;;;;;;5.93;5.43;;;22.60;99.90;;;;;;4961872;28;20042;-92
2021/06/10 07:29:43;;;;;;;6.13;5.63;;;22.60;99.90;;;;;;4973725;28;20050;-91
2021/06/10 07:32:10;;;;;;;5.90;5.40;;;22.60;99.90;;;;;;4939597;28;20051;-94
2021/06/10 07:34:40;;;;;;;7.20;5.78;;;22.80;99.90;;;;;;4955754;28;20082;-92
2021/06/10 07:37:27;;;;;;;;;;;;;;;;;;;;;
2021/06/10 07:40:05;;;;;;;6.25;4.90;;;23.40;99.90;;;;;;4957677;29;20158;-91
2021/06/10 07:42:40;;;;;;;6.35;5.70;;;23.60;99.90;;;;;;4967737;28;20324;-92
2021/06/10 07:45:11;;;;;;;5.63;5.03;;;24.00;99.90;;;;;;4971818;28;20110;-92
2021/06/10 07:47:48;;;;;;;6.43;5.53;;;24.50;99.60;;;;;;4969958;28;20072;-91
2021/06/10 07:50:16;;;;;;;5.95;5.00;;;25.00;94.80;;;;;;4967038;28;20209;-91
2021/06/10 07:52:44;;;;;;;6.90;5.40;;;25.50;94.00;;;;;;4972014;28;20054;-94
2021/06/10 07:55:33;;;;;;;6.28;5.13;;;25.40;92.90;;;;;;4962723;28;20031;-93
2021/06/10 07:58:01;;;;;;;6.43;5.75;;;25.60;90.50;;;;;;4955360;28;20050;-91
2021/06/10 08:00:31;;;;;;;5.88;5.32;;;25.20;91.00;;;;;;4965108;28;20055;-91
2021/06/10 08:02:58;;;;;;;7.47;5.72;;;24.80;90.80;;;;;;4977021;28;20050;-91
2021/06/10 08:05:31;;;;;;;5.88;5.20;;;24.60;93.50;;;;;;4943034;28;20475;-92
2021/06/10 08:07:58;;;;;;;6.22;5.68;;;24.70;92.00;;;;;;4940342;28;20114;-91
2021/06/10 08:10:26;;;;;;;6.82;5.30;;;24.90;92.70;;;;;;4949183;28;20441;-92
2021/06/10 08:12:59;;;;;;;5.75;5.25;;;25.00;91.50;;;;;;4953506;28;20044;-90
2021/06/10 08:15:36;;;;;;;5.57;5.15;;;25.40;93.70;;;;;;4946715;28;20389;-92
2021/06/10 08:18:09;;;;;;;5.38;4.88;;;25.90;92.70;;;;;;4978109;28;20472;-92
2021/06/10 08:20:36;;;;;;;7.93;6.72;;;26.90;88.00;;;;;;4960442;28;20146;-92
2021/06/10 08:23:04;;;;;;;7.30;6.70;;;27.00;80.60;;;;;;4958055;28;20054;-90
2021/06/10 08:25:33;;;;;;;7.53;6.68;;;26.50;80.90;;;;;;4976696;28;20050;-91
2021/06/10 08:28:07;;;;;;;8.88;7.70;;;25.60;84.40;;;;;;4960536;28;20051;-93
2021/06/10 08:30:37;;;;;;;7.63;6.82;;;25.10;90.20;;;;;;4951541;28;20047;-94
2021/06/10 08:33:09;;;;;;;7.28;6.47;;;25.00;91.60;;;;;;4940545;29;20074;-95
2021/06/10 08:35:59;;;;;;;8.00;7.28;;;25.70;91.20;;;;;;4971511;28;20061;-92
2021/06/10 08:38:28;;;;;;;7.55;6.82;;;26.40;90.20;;;;;;4976234;28;20051;-91
2021/06/10 08:40:56;;;;;;;7.55;6.80;;;27.00;87.50;;;;;;4939516;28;20487;-91
2021/06/10 08:43:27;;;;;;;9.02;7.38;;;27.30;78.80;;;;;;4940783;28;20051;-91
2021/06/10 08:46:05;;;;;;;7.53;6.82;;;27.10;78.00;;;;;;4975447;28;20056;-92
2021/06/10 08:48:38;;;;;;;7.43;6.30;;;27.00;76.60;;;;;;4970304;28;20130;-93
2021/06/10 08:51:11;;;;;;;8.27;7.45;;;26.70;78.60;;;;;;4963753;28;20445;-94
2021/06/10 08:53:51;;;;;;;9.70;6.20;;;27.00;80.20;;;;;;4966451;28;20051;-90
2021/06/10 08:56:21;;;;;;;7.72;6.97;;;27.70;79.00;;;;;;4967644;28;20093;-93
2021/06/10 08:58:55;;;;;;;11.15;6.65;;;28.10;73.10;;;;;;4985758;28;20054;-92
2021/06/10 09:01:36;;;;;;;8.23;7.10;;;28.30;77.30;;;;;;4985611;28;20114;-92
2021/06/10 09:04:11;;;;;;;8.10;7.32;;;28.90;74.20;;;;;;4981992;28;20055;-93
2021/06/10 09:06:54;;;;;;;7.85;6.15;;;28.80;68.70;;;;;;4972097;28;20065;-91
2021/06/10 09:09:41;;;;;;;8.30;7.57;;;29.30;72.40;;;;;;4948883;28;20061;-91
2021/06/10 09:12:10;;;;;;;8.77;7.88;;;29.70;64.10;;;;;;4951852;28;20043;-93
2021/06/10 09:15:01;;;;;;;7.38;6.68;;;29.30;64.60;;;;;;4963148;28;20043;-94
2021/06/10 09:17:41;;;;;;;8.25;7.40;;;29.00;67.50;;;;;;4979011;28;20146;-94
2021/06/10 09:20:21;;;;;;;10.73;9.10;;;29.00;66.80;;;;;;4967899;28;20437;-92
2021/06/10 09:22:50;;;;;;;8.23;7.45;;;29.70;63.70;;;;;;4981289;28;20376;-92
2021/06/10 09:25:22;;;;;;;9.60;8.48;;;30.00;64.20;;;;;;4970579;28;20057;-92
2021/06/10 09:28:02;;;;;;;9.18;8.32;;;29.50;61.00;;;;;;4980054;28;20484;-92
2021/06/10 09:31:05;;;;;;;;;;;;;;;;;;;;;
2021/06/10 09:33:57;;;;;;;11.30;9.50;;;28.30;69.10;;;;;;4969855;28;20055;-93
2021/06/10 09:36:26;;;;;;;9.98;8.75;;;27.70;68.10;;;;;;4963237;28;20078;-94
2021/06/10 09:39:13;;;;;;;10.15;9.05;;;26.80;72.20;;;;;;4949305;28;20043;-94
2021/06/10 09:42:14;;;;;;;9.32;8.38;;;26.30;73.60;;;;;;4991110;28;20380;-92
2021/06/10 09:44:53;;;;;;;9.30;8.30;;;26.20;76.00;;;;;;4972816;28;20086;-92
2021/06/10 09:47:53;;;;;;;11.98;7.75;;;25.90;79.40;;;;;;4985879;28;20051;-92
2021/06/10 09:51:29;;;;;;;10.57;9.25;;;25.60;81.10;;;;;;4947177;28;20054;-92
2021/06/10 09:53:59;;;;;;;12.05;10.32;;;25.30;83.00;;;;;;4913697;29;20079;-91
2021/06/10 09:56:36;;;;;;;;;;;24.90;84.60;;;;;;4907991;28;20051;-92
2021/06/10 09:59:05;;;;;;;11.88;10.68;;;24.70;85.00;;;;;;4983925;28;19933;-91
2021/06/10 10:01:37;;;;;;;13.63;11.55;;;24.60;90.00;;;;;;4961006;28;20471;-92
2021/06/10 10:04:08;;;;;;;12.00;10.63;;;24.50;88.10;;;;;;4977911;28;20047;-93
2021/06/10 10:06:37;;;;;;;10.98;9.85;;;24.70;86.70;;;;;;4960103;28;20456;-91
2021/06/10 10:09:05;;;;;;;14.10;11.98;;;25.00;86.90;;;;;;4960423;28;20051;-92
2021/06/10 10:11:51;;;;;;;11.02;9.82;;;25.20;79.40;;;;;;4981192;28;20035;-92
2021/06/10 10:14:25;;;;;;;11.40;10.35;;;25.20;85.90;;;;;;4981110;28;20117;-92
2021/06/10 10:17:17;;;;;;;10.68;9.63;;;25.40;82.90;;;;;;4990184;28;20049;-93
2021/06/10 10:19:45;;;;;;;13.30;9.75;;;26.70;80.50;;;;;;4960706;28;20086;-91
2021/06/10 10:22:13;;;;;;;10.98;9.90;;;28.00;69.80;;;;;;4957571;28;20085;-92
2021/06/10 10:24:42;;;;;;;12.45;8.55;;;29.10;65.70;;;;;;4963431;28;20059;-91
2021/06/10 10:27:14;;;;;;;8.82;8.02;;;29.10;68.90;;;;;;4971589;28;20154;-92
2021/06/10 10:29:47;;;;;;;10.25;9.23;;;29.60;68.70;;;;;;4966358;28;20068;-92
2021/06/10 10:32:33;;;;;;;9.30;8.40;;;29.80;68.00;;;;;;4979925;28;20070;-93
2021/06/10 10:35:21;;;;;;;9.63;8.20;;;29.90;65.50;;;;;;4982287;28;20125;-92
2021/06/10 10:37:57;;;;;;;8.80;7.97;;;30.30;65.10;;;;;;4981287;28;20086;-91
2021/06/10 10:40:42;;;;;;;;;;;;;;;;;;;;;
2021/06/10 10:47:59;;;;;;;10.35;8.38;;;29.80;62.70;;;;;;4907498;29;20052;-92
2021/06/10 10:51:33;;;;;;;8.57;7.80;;;28.50;66.60;;;;;;4830789;29;20061;-92
2021/06/10 10:57:33;;;;;;;;;;;;;;;;;;;;;
2021/06/10 11:00:17;;;;;;;10.20;9.18;;;26.00;77.00;;;;;;4981658;28;20061;-93
2021/06/10 11:06:56;;;;;;;;;;;;;;;;;;;;;
2021/06/10 11:18:06;;;;;;;9.85;8.88;;;30.80;63.40;;;;;;5018943;28;20045;-91
2021/06/10 11:20:40;;;;;;;9.67;8.77;;;29.50;69.90;;;;;;4999013;28;20050;-92
2021/06/10 11:23:28;;;;;;;10.73;9.73;;;29.10;73.00;;;;;;4988072;28;20066;-93
2021/06/10 11:25:58;;;;;;;11.98;9.73;;;28.90;69.90;;;;;;5007585;28;20431;-91
2021/06/10 11:28:50;;;;;;;9.50;8.70;;;28.60;66.60;;;;;;4997664;28;20049;-92
2021/06/10 11:31:31;;;;;;;8.73;7.80;;;29.50;68.90;;;;;;4991639;28;20049;-92
2021/06/10 11:34:29;;;;;;;9.88;8.88;;;30.80;64.40;;;;;;5003827;28;20050;-92
2021/06/10 11:37:06;;;;;;;8.38;7.57;;;32.00;54.60;;;;;;4990217;28;20085;-91
2021/06/10 11:40:02;;;;;;;8.38;7.57;;;32.00;56.00;;;;;;4988923;28;20058;-93
2021/06/10 11:42:43;;;;;;;7.95;7.25;;;32.50;52.20;;;;;;4978618;28;20130;-92
2021/06/10 11:45:13;;;;;;;8.32;7.53;;;32.40;49.30;;;;;;5010435;28;20054;-93
2021/06/10 11:47:43;;;;;;;8.15;7.40;;;31.30;50.80;;;;;;5015202;28;20050;-94
2021/06/10 11:50:48;;;;;;;9.10;8.02;;;30.40;54.40;;;;;;5009174;28;20054;-92
2021/06/10 11:54:13;;;;;;;;;;;;;;;;;;;;;
2021/06/10 11:57:04;;;;;;;9.13;8.23;;;28.10;57.30;;;;;;5006212;28;20062;-92
2021/06/10 12:03:39;;;;;;;13.07;11.88;;;25.80;69.80;;;;;;4991239;28;20459;-94
2021/06/10 12:06:22;;;;;;;18.77;16.60;;;25.00;81.50;;;;;;4993195;28;20128;-92
2021/06/10 12:08:49;;;;;;;;;;;24.30;98.30;;;;;;5007595;28;20041;-91
2021/06/10 12:11:32;;;;;;;22.85;19.30;;;23.30;99.90;;;;;;4986622;28;19950;-91
2021/06/10 12:14:02;;;;;;;18.33;14.15;;;22.50;99.90;;;;;;4989219;28;20144;-91
2021/06/10 12:16:31;;;;;;;;;;;21.80;99.90;;;;;;5000990;28;20061;-92
2021/06/10 12:19:01;;;;;;;16.45;14.40;;;21.20;99.90;;;;;;4998367;28;19922;-92
2021/06/10 12:21:33;;;;;;;16.73;14.88;;;21.00;99.90;;;;;;5011937;28;20049;-92
2021/06/10 12:24:25;;;;;;;15.15;13.55;;;21.20;99.90;;;;;;5006734;28;20038;-92
2021/06/10 12:27:08;;;;;;;18.25;12.43;;;21.40;99.90;;;;;;5017964;28;20053;-91
2021/06/10 12:29:55;;;;;;;12.98;9.40;;;21.50;99.90;;;;;;4986196;28;20050;-90
2021/06/10 12:32:29;;;;;;;11.55;8.68;;;21.80;99.90;;;;;;4990147;28;20112;-92
2021/06/10 12:34:58;;;;;;;11.40;7.78;;;22.60;99.90;;;;;;5002849;28;20176;-90
2021/06/10 12:37:25;;;;;;;8.98;6.28;;;23.80;99.90;;;;;;5012745;28;20052;-91
2021/06/10 12:40:02;;;;;;;8.05;6.30;;;25.30;99.90;;;;;;5016933;28;20054;-90
2021/06/10 12:42:37;;;;;;;8.65;6.30;;;27.30;98.10;;;;;;4999021;28;20058;-91
2021/06/10 12:45:33;;;;;;;7.75;6.95;;;28.70;87.60;;;;;;4988437;28;20112;-91
2021/06/10 12:48:24;;;;;;;8.65;7.85;;;29.40;77.70;;;;;;4996718;28;20069;-91
2021/06/10 12:51:43;;;;;;;8.82;7.95;;;30.00;68.20;;;;;;5012707;28;20391;-92
2021/06/10 12:54:49;;;;;;;10.88;8.48;;;29.70;64.00;;;;;;4997451;28;20101;-95
2021/06/10 13:01:30;;;;;;;11.55;9.27;;;31.50;59.90;;;;;;4910702;29;20104;-92
2021/06/10 13:04:25;;;;;;;11.02;9.95;;;31.40;63.80;;;;;;4932986;28;20367;-93
2021/06/10 13:06:57;;;;;;;10.38;9.27;;;31.20;85.60;;;;;;4958716;28;20077;-90
2021/06/10 13:09:25;;;;;;;9.77;8.98;;;30.90;84.40;;;;;;4992394;28;20129;-92
2021/06/10 13:12:11;;;;;;;10.02;9.07;;;30.80;88.50;;;;;;4997585;28;20100;-92
2021/06/10 13:14:39;;;;;;;11.95;9.82;;;29.60;85.50;;;;;;4979585;28;20387;-91
2021/06/10 13:17:07;;;;;;;11.55;10.45;;;28.30;93.90;;;;;;4975171;28;20058;-89
2021/06/10 13:19:44;;;;;;;13.02;10.48;;;27.70;95.00;;;;;;4987749;28;20045;-91
2021/06/10 13:22:15;;;;;;;10.57;9.48;;;27.30;95.10;;;;;;4981787;28;20037;-89
2021/06/10 13:24:47;;;;;;;12.57;10.77;;;26.80;95.50;;;;;;4997618;28;20050;-89
2021/06/10 13:27:23;;;;;;;10.48;9.35;;;27.40;99.90;;;;;;4991543;28;20042;-91
2021/06/10 13:30:20;;;;;;;10.10;8.52;;;28.50;93.80;;;;;;5008329;28;20073;-90
2021/06/10 13:33:28;;;;;;;9.50;8.70;;;30.00;82.70;;;;;;4983349;28;20391;-90
2021/06/10 13:37:05;;;;;;;;;;;;;;;;;;;;;
2021/06/10 13:51:10;;;;;;;7.95;7.25;;;33.30;60.90;;;;;;4913703;29;20051;-93
2021/06/10 14:02:11;;;;;;;17.20;11.07;;;28.50;78.40;;;;;;4998086;28;20076;-93
2021/06/10 14:04:45;;;;;;;13.95;11.88;;;27.50;90.30;;;;;;4986654;28;20450;-94
2021/06/10 14:07:13;;;;;;;11.10;10.00;;;27.30;96.50;;;;;;4983245;28;20046;-93
2021/06/10 14:09:45;;;;;;;11.80;9.38;;;27.70;98.30;;;;;;5012586;28;20129;-94
2021/06/10 14:12:15;;;;;;;12.63;8.43;;;28.10;95.10;;;;;;4983221;28;20045;-91
2021/06/10 14:14:42;;;;;;;10.93;9.45;;;28.30;87.90;;;;;;4995982;28;20068;-92
2021/06/10 14:17:26;;;;;;;15.52;12.00;;;28.50;90.20;;;;;;5004463;28;20072;-93
2021/06/10 14:23:06;;;;;;;10.93;9.82;;;26.00;99.50;;;;;;5015148;28;20049;-92
2021/06/10 14:25:55;;;;;;;14.23;11.07;;;24.30;99.90;;;;;;4993618;28;20068;-91
2021/06/10 14:28:43;;;;;;;13.35;12.05;;;23.00;99.90;;;;;;4993447;28;20463;-93